createdAt,value
2019-01-26T00:01:46.011Z,3.60
2019-01-26T00:04:20.816Z,3.60
2019-01-26T00:06:55.632Z,3.60
2019-01-26T00:09:30.323Z,3.60
2019-01-26T00:12:05.187Z,3.60
2019-01-26T00:14:39.985Z,3.60
2019-01-26T00:17:14.689Z,3.70
2019-01-26T00:19:49.655Z,3.70
2019-01-26T00:22:24.368Z,3.70
2019-01-26T00:24:59.123Z,3.70
2019-01-26T00:27:33.913Z,3.70
2019-01-26T00:30:11.272Z,3.70
2019-01-26T00:32:46.067Z,3.60
2019-01-26T00:35:20.807Z,3.60
2019-01-26T00:37:55.531Z,3.70
2019-01-26T00:40:30.363Z,3.60
2019-01-26T00:43:05.119Z,3.60
2019-01-26T00:45:40.082Z,3.70
2019-01-26T00:48:14.828Z,3.70
2019-01-26T00:50:49.554Z,3.70
2019-01-26T00:53:24.327Z,3.70
2019-01-26T00:55:59.186Z,3.70
2019-01-26T00:58:34.093Z,3.70
2019-01-26T01:01:08.900Z,3.70
2019-01-26T01:03:43.783Z,3.70
2019-01-26T01:06:19.683Z,3.70
2019-01-26T01:08:54.475Z,3.70
2019-01-26T01:11:29.343Z,3.70
2019-01-26T01:14:04.211Z,3.70
2019-01-26T01:16:38.955Z,3.70
2019-01-26T01:19:13.735Z,3.70
2019-01-26T01:21:48.512Z,3.60
2019-01-26T01:24:23.283Z,3.70
2019-01-26T01:26:58.078Z,3.70
2019-01-26T01:29:32.846Z,3.60
2019-01-26T01:32:07.739Z,3.60
2019-01-26T01:34:42.517Z,3.60
2019-01-26T01:37:17.259Z,3.60
2019-01-26T01:39:52.079Z,3.60
2019-01-26T01:42:26.894Z,3.60
2019-01-26T01:45:01.624Z,3.70
2019-01-26T01:47:36.375Z,3.70
2019-01-26T01:50:11.346Z,3.60
2019-01-26T01:52:46.222Z,3.60
2019-01-26T01:55:21.006Z,3.60
2019-01-26T01:57:55.791Z,3.60
2019-01-26T02:00:30.733Z,3.60
2019-01-26T02:03:05.608Z,3.60
2019-01-26T02:05:40.490Z,3.60
2019-01-26T02:08:15.294Z,3.70
2019-01-26T02:10:50.079Z,3.60
2019-01-26T02:13:25.910Z,3.60
2019-01-26T02:16:00.638Z,3.60
2019-01-26T02:18:35.594Z,3.50
2019-01-26T02:21:10.698Z,3.60
2019-01-26T02:23:45.487Z,3.60
2019-01-26T02:26:20.276Z,3.70
2019-01-26T02:28:55.082Z,3.60
2019-01-26T02:31:29.803Z,3.70
2019-01-26T02:34:04.787Z,3.70
2019-01-26T02:36:39.488Z,3.50
2019-01-26T02:39:14.363Z,3.60
2019-01-26T02:41:49.087Z,3.60
2019-01-26T02:44:23.815Z,3.70
2019-01-26T02:46:58.619Z,3.70
2019-01-26T02:49:34.497Z,3.70
2019-01-26T02:52:09.299Z,3.70
2019-01-26T02:54:44.083Z,3.80
2019-01-26T02:57:18.802Z,3.80
2019-01-26T02:59:53.554Z,3.90
2019-01-26T03:02:28.347Z,3.80
2019-01-26T03:05:03.578Z,3.90
2019-01-26T03:07:38.354Z,3.80
2019-01-26T03:10:15.108Z,3.90
2019-01-26T03:12:49.883Z,3.80
2019-01-26T03:15:25.079Z,3.80
2019-01-26T03:17:59.859Z,3.80
2019-01-26T03:20:34.607Z,3.80
2019-01-26T03:23:09.319Z,3.90
2019-01-26T03:25:44.189Z,3.90
2019-01-26T03:28:18.959Z,4.00
2019-01-26T03:30:53.688Z,4.00
2019-01-26T03:33:29.576Z,4.00
2019-01-26T03:36:04.478Z,4.10
2019-01-26T03:38:39.373Z,4.00
2019-01-26T03:41:15.155Z,4.10
2019-01-26T03:43:49.908Z,4.10
2019-01-26T03:46:24.667Z,4.10
2019-01-26T03:48:59.491Z,4.10
2019-01-26T03:51:34.412Z,4.10
2019-01-26T03:54:10.144Z,4.00
2019-01-26T03:56:45.144Z,4.00
2019-01-26T03:59:20.043Z,4.10
2019-01-26T04:01:54.960Z,4.10
2019-01-26T04:04:29.901Z,4.10
2019-01-26T04:07:04.850Z,4.20
2019-01-26T04:09:40.766Z,4.20
2019-01-26T04:12:15.611Z,4.20
2019-01-26T04:14:50.549Z,4.30
2019-01-26T04:17:25.476Z,4.30
2019-01-26T04:20:00.377Z,4.40
2019-01-26T04:22:35.352Z,4.40
2019-01-26T04:25:11.412Z,4.40
2019-01-26T04:27:46.311Z,4.40
2019-01-26T04:30:22.106Z,4.40
2019-01-26T04:32:57.959Z,4.40
2019-01-26T04:35:32.759Z,4.30
2019-01-26T04:38:07.739Z,4.30
2019-01-26T04:40:43.607Z,4.40
2019-01-26T04:43:18.360Z,4.30
2019-01-26T04:45:53.328Z,4.40
2019-01-26T04:48:28.151Z,4.40
2019-01-26T04:51:02.982Z,4.30
2019-01-26T04:53:40.044Z,4.40
2019-01-26T04:56:14.860Z,4.40
2019-01-26T04:58:49.684Z,4.50
2019-01-26T05:01:24.627Z,4.50
2019-01-26T05:03:59.464Z,4.40
2019-01-26T05:06:37.456Z,4.40
2019-01-26T05:09:12.387Z,4.40
2019-01-26T05:11:47.227Z,4.40
2019-01-26T05:14:22.076Z,4.40
2019-01-26T05:16:57.985Z,4.40
2019-01-26T05:19:32.798Z,4.40
2019-01-26T05:22:07.864Z,4.50
2019-01-26T05:24:42.668Z,4.50
2019-01-26T05:27:17.433Z,4.60
2019-01-26T05:29:52.179Z,4.60
2019-01-26T05:32:27.368Z,4.60
2019-01-26T05:35:02.203Z,4.70
2019-01-26T05:37:37.072Z,4.70
2019-01-26T05:40:14.166Z,4.80
2019-01-26T05:42:48.928Z,4.80
2019-01-26T05:45:23.913Z,4.80
2019-01-26T05:47:58.833Z,4.90
2019-01-26T05:50:34.818Z,4.90
2019-01-26T05:53:09.719Z,4.90
2019-01-26T05:55:44.607Z,4.90
2019-01-26T05:58:19.535Z,4.90
2019-01-26T06:00:54.429Z,4.90
2019-01-26T06:03:29.371Z,4.90
2019-01-26T06:06:04.292Z,5.00
2019-01-26T06:08:39.067Z,5.00
2019-01-26T06:11:13.903Z,5.10
2019-01-26T06:13:48.667Z,5.10
2019-01-26T06:16:23.575Z,5.10
2019-01-26T06:18:58.418Z,5.10
2019-01-26T06:21:33.415Z,5.10
2019-01-26T06:24:08.336Z,5.10
2019-01-26T06:26:43.347Z,5.20
2019-01-26T06:29:18.283Z,5.20
2019-01-26T06:31:53.227Z,5.20
2019-01-26T06:34:28.047Z,5.20
2019-01-26T06:37:02.980Z,5.30
2019-01-26T06:39:38.767Z,5.30
2019-01-26T06:42:13.674Z,5.30
2019-01-26T06:44:48.504Z,5.30
2019-01-26T06:47:23.347Z,5.30
2019-01-26T06:49:58.231Z,5.30
2019-01-26T06:52:33.192Z,5.20
2019-01-26T06:55:09.247Z,5.30
2019-01-26T06:57:44.204Z,5.30
2019-01-26T07:00:22.237Z,5.30
2019-01-26T07:02:57.270Z,5.30
2019-01-26T07:05:57.116Z,5.30
2019-01-26T07:08:32.014Z,5.40
2019-01-26T07:11:07.083Z,5.40
2019-01-26T07:13:41.941Z,5.30
2019-01-26T07:16:18.519Z,5.30
2019-01-26T07:18:53.382Z,5.40
2019-01-26T07:21:29.247Z,5.40
2019-01-26T07:24:04.306Z,5.30
2019-01-26T07:26:39.192Z,5.40
2019-01-26T07:29:14.103Z,5.50
2019-01-26T07:31:52.695Z,5.50
2019-01-26T07:34:27.836Z,5.50
2019-01-26T07:37:02.770Z,5.60
2019-01-26T07:39:37.722Z,5.60
2019-01-26T07:42:12.549Z,5.60
2019-01-26T07:44:47.315Z,5.60
2019-01-26T07:47:22.172Z,5.70
2019-01-26T07:49:57.000Z,5.60
2019-01-26T07:52:31.875Z,5.80
2019-01-26T07:55:07.414Z,5.70
2019-01-26T07:57:42.302Z,5.70
2019-01-26T08:00:22.415Z,5.70
2019-01-26T08:02:57.318Z,5.70
2019-01-26T08:05:32.531Z,5.80
2019-01-26T08:08:07.568Z,5.80
2019-01-26T08:10:43.478Z,5.80
2019-01-26T08:13:18.337Z,5.80
2019-01-26T08:15:53.108Z,5.90
2019-01-26T08:18:28.075Z,5.90
2019-01-26T08:21:02.991Z,5.90
2019-01-26T08:23:37.916Z,6.00
2019-01-26T08:26:12.954Z,6.00
2019-01-26T08:28:47.856Z,6.00
2019-01-26T08:31:22.799Z,6.00
2019-01-26T08:33:58.108Z,5.90
2019-01-26T08:36:33.011Z,6.00
2019-01-26T08:39:08.704Z,6.00
2019-01-26T08:41:43.513Z,6.00
2019-01-26T08:44:18.395Z,6.00
2019-01-26T08:46:53.435Z,5.90
2019-01-26T08:49:28.292Z,6.00
2019-01-26T08:52:03.207Z,6.00
2019-01-26T08:54:40.295Z,5.90
2019-01-26T08:57:15.193Z,6.00
2019-01-26T08:59:50.199Z,5.90
2019-01-26T09:02:39.825Z,5.90
2019-01-26T09:05:17.056Z,5.80
2019-01-26T09:07:52.955Z,6.00
2019-01-26T09:10:27.836Z,6.00
2019-01-26T09:13:02.668Z,5.90
2019-01-26T09:15:37.587Z,5.90
2019-01-26T09:18:12.500Z,5.90
2019-01-26T09:20:47.474Z,5.90
2019-01-26T09:23:22.455Z,5.80
2019-01-26T09:25:57.323Z,5.80
2019-01-26T09:28:32.395Z,5.70
2019-01-26T09:31:07.351Z,5.70
2019-01-26T09:33:42.263Z,5.80
2019-01-26T09:36:17.175Z,5.80
2019-01-26T09:38:52.043Z,5.90
2019-01-26T09:41:27.156Z,5.90
2019-01-26T09:44:03.360Z,5.80
2019-01-26T09:46:38.326Z,5.90
2019-01-26T09:49:13.216Z,6.00
2019-01-26T09:51:48.118Z,5.90
2019-01-26T09:54:23.085Z,6.00
2019-01-26T09:56:57.993Z,5.90
2019-01-26T09:59:32.823Z,5.90
2019-01-26T10:02:07.750Z,6.00
2019-01-26T10:04:42.579Z,6.10
2019-01-26T10:07:17.535Z,6.00
2019-01-26T10:09:52.384Z,6.00
2019-01-26T10:12:27.223Z,6.10
2019-01-26T10:15:02.064Z,6.10
2019-01-26T10:17:37.053Z,6.10
2019-01-26T10:20:15.395Z,6.10
2019-01-26T10:22:50.320Z,6.00
2019-01-26T10:25:25.235Z,6.00
2019-01-26T10:28:00.127Z,6.00
2019-01-26T10:30:43.022Z,6.00
2019-01-26T10:33:18.156Z,6.00
2019-01-26T10:36:18.152Z,6.20
2019-01-26T10:39:00.410Z,6.30
2019-01-26T10:41:53.048Z,6.30
2019-01-26T10:44:30.443Z,6.30
2019-01-26T10:47:06.250Z,6.30
2019-01-26T10:49:41.173Z,6.40
2019-01-26T10:52:16.137Z,6.40
2019-01-26T10:54:51.039Z,6.50
2019-01-26T10:57:25.947Z,6.50
2019-01-26T11:00:00.860Z,6.50
2019-01-26T11:02:35.827Z,6.50
2019-01-26T11:05:10.812Z,6.50
2019-01-26T11:07:45.753Z,6.60
2019-01-26T11:10:20.662Z,6.70
2019-01-26T11:12:55.500Z,6.70
2019-01-26T11:15:30.395Z,6.70
2019-01-26T11:18:05.559Z,6.70
2019-01-26T11:20:40.458Z,6.70
2019-01-26T11:23:15.407Z,6.80
2019-01-26T11:25:50.314Z,6.80
2019-01-26T11:28:25.248Z,6.90
2019-01-26T11:31:00.449Z,6.80
2019-01-26T11:33:35.383Z,6.80
2019-01-26T11:36:10.348Z,6.90
2019-01-26T11:38:45.244Z,7.00
2019-01-26T11:41:20.086Z,7.00
2019-01-26T11:43:54.912Z,7.00
2019-01-26T11:46:36.235Z,7.00
2019-01-26T11:49:15.055Z,6.90
2019-01-26T11:52:06.655Z,7.00
2019-01-26T11:54:57.092Z,7.00
2019-01-26T11:57:34.463Z,7.00
2019-01-26T12:00:41.158Z,7.10
2019-01-26T12:03:33.939Z,7.10
2019-01-26T12:06:12.347Z,7.20
2019-01-26T12:08:47.267Z,7.20
2019-01-26T12:11:22.035Z,7.30
2019-01-26T12:13:56.996Z,7.20
2019-01-26T12:16:31.811Z,7.30
2019-01-26T12:19:06.719Z,7.30
2019-01-26T12:21:41.668Z,7.30
2019-01-26T12:24:16.624Z,7.40
2019-01-26T12:26:51.716Z,7.30
2019-01-26T12:29:26.680Z,7.40
2019-01-26T12:32:01.627Z,7.40
2019-01-26T12:34:36.540Z,7.40
2019-01-26T12:37:11.497Z,7.40
2019-01-26T12:39:46.452Z,7.40
2019-01-26T12:42:21.327Z,7.40
2019-01-26T12:44:56.079Z,7.40
2019-01-26T12:47:31.979Z,7.40
2019-01-26T12:50:07.626Z,7.40
2019-01-26T12:52:42.590Z,7.40
2019-01-26T12:55:17.675Z,7.40
2019-01-26T12:57:52.430Z,7.30
2019-01-26T13:00:27.479Z,7.30
2019-01-26T13:03:02.367Z,7.20
2019-01-26T13:05:37.204Z,7.20
2019-01-26T13:08:12.207Z,7.10
2019-01-26T13:10:49.908Z,7.10
2019-01-26T13:13:24.833Z,7.10
2019-01-26T13:15:59.732Z,7.10
2019-01-26T13:18:34.664Z,7.10
2019-01-26T13:21:09.704Z,7.20
2019-01-26T13:23:44.961Z,7.10
2019-01-26T13:26:21.417Z,7.20
2019-01-26T13:28:56.484Z,7.20
2019-01-26T13:31:31.416Z,7.30
2019-01-26T13:34:06.471Z,7.30
2019-01-26T13:36:41.386Z,7.30
2019-01-26T13:39:16.707Z,7.30
2019-01-26T13:41:51.608Z,7.40
2019-01-26T13:44:26.459Z,7.30
2019-01-26T13:47:01.336Z,7.30
2019-01-26T13:49:36.166Z,7.30
2019-01-26T13:52:11.129Z,7.30
2019-01-26T13:54:45.994Z,7.30
2019-01-26T13:57:22.824Z,7.40
2019-01-26T13:59:59.717Z,7.30
2019-01-26T14:02:34.633Z,7.40
2019-01-26T14:05:09.795Z,7.30
2019-01-26T14:07:44.993Z,7.30
2019-01-26T14:10:20.463Z,7.40
2019-01-26T14:12:56.547Z,7.40
2019-01-26T14:15:31.555Z,7.50
2019-01-26T14:18:06.657Z,7.40
2019-01-26T14:20:41.612Z,7.50
2019-01-26T14:23:16.648Z,7.50
2019-01-26T14:25:51.948Z,7.60
2019-01-26T14:28:27.226Z,7.50
2019-01-26T14:31:05.732Z,7.50
2019-01-26T14:33:40.690Z,7.50
2019-01-26T14:36:15.628Z,7.50
2019-01-26T14:38:50.585Z,7.50
2019-01-26T14:41:25.479Z,7.50
2019-01-26T14:44:00.422Z,7.60
2019-01-26T14:46:35.397Z,7.60
2019-01-26T14:49:12.020Z,7.60
2019-01-26T14:51:46.964Z,7.50
2019-01-26T14:54:21.967Z,7.60
2019-01-26T14:56:56.949Z,7.60
2019-01-26T14:59:31.962Z,7.60
2019-01-26T15:02:06.924Z,7.70
2019-01-26T15:04:42.871Z,7.50
2019-01-26T15:07:17.812Z,7.50
2019-01-26T15:09:52.803Z,7.60
2019-01-26T15:12:27.748Z,7.60
2019-01-26T15:15:02.821Z,7.60
2019-01-26T15:17:37.753Z,7.60
2019-01-26T15:20:18.273Z,7.50
2019-01-26T15:22:53.243Z,7.50
2019-01-26T15:25:29.566Z,7.50
2019-01-26T15:28:04.991Z,7.50
2019-01-26T15:30:41.655Z,7.60
2019-01-26T15:33:16.895Z,7.50
2019-01-26T15:35:51.846Z,7.50
2019-01-26T15:38:26.937Z,7.50
2019-01-26T15:41:02.019Z,7.60
2019-01-26T15:43:36.876Z,7.60
2019-01-26T15:46:11.843Z,7.60
2019-01-26T15:48:46.668Z,7.60
2019-01-26T15:51:21.411Z,7.50
2019-01-26T15:53:56.356Z,7.50
2019-01-26T15:56:32.223Z,7.50
2019-01-26T15:59:07.244Z,7.50
2019-01-26T16:01:43.813Z,7.50
2019-01-26T16:04:18.853Z,7.50
2019-01-26T16:06:53.852Z,7.50
2019-01-26T16:09:28.783Z,7.50
2019-01-26T16:12:03.716Z,7.40
2019-01-26T16:14:39.664Z,7.40
2019-01-26T16:17:14.631Z,7.40
2019-01-26T16:19:49.639Z,7.40
2019-01-26T16:22:24.576Z,7.50
2019-01-26T16:24:59.452Z,7.50
2019-01-26T16:27:34.481Z,7.50
2019-01-26T16:30:12.980Z,7.40
2019-01-26T16:32:49.124Z,7.50
2019-01-26T16:35:24.099Z,7.40
2019-01-26T16:37:58.991Z,7.30
2019-01-26T16:40:36.371Z,7.40
2019-01-26T16:43:11.302Z,7.40
2019-01-26T16:45:46.356Z,7.50
2019-01-26T16:48:21.300Z,7.50
2019-01-26T16:50:56.298Z,7.30
2019-01-26T16:53:31.397Z,7.40
2019-01-26T16:56:06.543Z,7.40
2019-01-26T16:58:42.531Z,7.40
2019-01-26T17:01:17.489Z,7.50
2019-01-26T17:03:52.548Z,7.40
2019-01-26T17:06:27.495Z,7.40
2019-01-26T17:09:02.819Z,7.50
2019-01-26T17:11:39.232Z,7.40
2019-01-26T17:14:14.163Z,7.30
2019-01-26T17:16:48.979Z,7.40
2019-01-26T17:19:23.818Z,7.30
2019-01-26T17:21:58.775Z,7.30
2019-01-26T17:24:33.627Z,7.30
2019-01-26T17:27:08.479Z,7.20
2019-01-26T17:29:43.479Z,7.30
2019-01-26T17:32:18.332Z,7.30
2019-01-26T17:34:53.159Z,7.40
2019-01-26T17:37:28.236Z,7.40
2019-01-26T17:40:03.202Z,7.40
2019-01-26T17:42:38.059Z,7.30
2019-01-26T17:45:13.076Z,7.30
2019-01-26T17:47:48.160Z,7.40
2019-01-26T17:50:23.961Z,7.30
2019-01-26T17:52:59.433Z,7.40
2019-01-26T17:55:34.365Z,7.40
2019-01-26T17:58:09.342Z,7.40
2019-01-26T18:01:09.482Z,7.40
2019-01-26T18:03:44.552Z,7.50
2019-01-26T18:06:19.590Z,7.40
2019-01-26T18:08:54.556Z,7.40
2019-01-26T18:11:29.547Z,7.50
2019-01-26T18:14:04.707Z,7.40
2019-01-26T18:16:39.539Z,7.30
2019-01-26T18:19:14.495Z,7.40
2019-01-26T18:21:49.460Z,7.30
2019-01-26T18:24:25.477Z,7.30
2019-01-26T18:27:00.449Z,7.30
2019-01-26T18:29:36.416Z,7.30
2019-01-26T18:32:11.393Z,7.30
2019-01-26T18:34:46.307Z,7.30
2019-01-26T18:37:21.311Z,7.30
2019-01-26T18:39:56.327Z,7.30
2019-01-26T18:42:31.147Z,7.30
2019-01-26T18:45:07.483Z,7.20
2019-01-26T18:47:42.389Z,7.20
2019-01-26T18:50:19.747Z,7.20
2019-01-26T18:52:54.683Z,7.10
2019-01-26T18:55:29.627Z,7.20
2019-01-26T18:58:05.151Z,7.20
2019-01-26T19:00:42.851Z,7.20
2019-01-26T19:03:57.387Z,7.50
2019-01-26T19:06:34.445Z,7.40
2019-01-26T19:09:11.256Z,7.60
2019-01-26T19:11:46.124Z,7.40
2019-01-26T19:14:21.018Z,7.40
2019-01-26T19:16:55.876Z,7.30
2019-01-26T19:19:30.854Z,7.30
2019-01-26T19:22:05.804Z,7.30
2019-01-26T19:24:40.759Z,7.30
2019-01-26T19:27:15.743Z,7.30
2019-01-26T19:29:51.469Z,7.20
2019-01-26T19:32:26.418Z,7.30
2019-01-26T19:35:01.240Z,7.30
2019-01-26T19:37:36.076Z,7.30
2019-01-26T19:40:14.324Z,7.30
2019-01-26T19:42:49.237Z,7.40
2019-01-26T19:45:25.220Z,7.40
2019-01-26T19:48:00.114Z,7.40
2019-01-26T19:50:35.051Z,7.40
2019-01-26T19:53:10.031Z,7.30
2019-01-26T19:55:45.079Z,7.30
2019-01-26T19:58:19.924Z,7.30
2019-01-26T20:00:54.932Z,7.30
2019-01-26T20:03:29.821Z,7.30
2019-01-26T20:06:05.811Z,7.30
2019-01-26T20:08:40.708Z,7.20
2019-01-26T20:11:16.747Z,7.30
2019-01-26T20:13:51.699Z,7.30
2019-01-26T20:16:26.653Z,7.30
2019-01-26T20:19:01.555Z,7.20
2019-01-26T20:21:36.487Z,7.20
2019-01-26T20:24:11.384Z,7.20
2019-01-26T20:26:47.242Z,7.20
2019-01-26T20:29:22.034Z,7.20
2019-01-26T20:31:57.082Z,7.10
2019-01-26T20:34:32.387Z,7.20
2019-01-26T20:37:07.475Z,7.20
2019-01-26T20:39:42.230Z,7.20
2019-01-26T20:42:17.192Z,7.20
2019-01-26T20:44:52.107Z,7.20
2019-01-26T20:47:27.035Z,7.20
2019-01-26T20:50:01.885Z,7.30
2019-01-26T20:52:36.719Z,7.20
2019-01-26T20:55:12.027Z,7.30
2019-01-26T20:57:47.122Z,7.30
2019-01-26T21:00:24.404Z,7.40
2019-01-26T21:02:59.413Z,7.30
2019-01-26T21:05:34.325Z,7.30
2019-01-26T21:08:09.399Z,7.40
2019-01-26T21:10:44.327Z,7.40
2019-01-26T21:13:19.291Z,7.30
2019-01-26T21:15:54.332Z,7.50
2019-01-26T21:18:29.244Z,7.50
2019-01-26T21:21:05.718Z,7.60
2019-01-26T21:23:40.736Z,7.60
2019-01-26T21:26:15.755Z,7.60
2019-01-26T21:28:50.676Z,7.60
2019-01-26T21:31:25.668Z,7.60
2019-01-26T21:34:00.625Z,7.70
2019-01-26T21:36:35.577Z,7.70
2019-01-26T21:39:10.688Z,7.70
2019-01-26T21:41:45.616Z,7.70
2019-01-26T21:44:20.650Z,7.70
2019-01-26T21:46:55.595Z,7.60
2019-01-26T21:49:30.541Z,7.60
2019-01-26T21:52:05.541Z,7.70
2019-01-26T21:54:40.475Z,7.70
2019-01-26T21:57:15.548Z,7.80
2019-01-26T21:59:50.588Z,7.70
2019-01-26T22:02:25.568Z,7.80
2019-01-26T22:05:00.424Z,7.70
2019-01-26T22:07:35.372Z,7.70
2019-01-26T22:10:12.225Z,7.80
2019-01-26T22:12:47.273Z,7.70
2019-01-26T22:15:23.124Z,7.80
2019-01-26T22:17:58.208Z,7.80
2019-01-26T22:20:33.182Z,7.80
2019-01-26T22:23:08.242Z,7.80
2019-01-26T22:25:43.213Z,7.80
2019-01-26T22:28:18.179Z,7.90
2019-01-26T22:30:53.111Z,7.90
2019-01-26T22:33:27.924Z,8.00
2019-01-26T22:36:02.924Z,8.00
2019-01-26T22:38:37.800Z,8.00
2019-01-26T22:41:12.657Z,8.00
2019-01-26T22:43:47.733Z,8.00
2019-01-26T22:46:22.665Z,8.00
2019-01-26T22:48:57.697Z,8.00
2019-01-26T22:51:32.631Z,7.90
2019-01-26T22:54:07.604Z,7.90
2019-01-26T22:56:42.568Z,7.90
2019-01-26T22:59:17.498Z,7.90
2019-01-26T23:01:52.656Z,7.90
2019-01-26T23:04:57.132Z,7.90
2019-01-26T23:07:41.776Z,7.90
2019-01-26T23:10:46.122Z,7.80
2019-01-26T23:13:44.372Z,7.80
2019-01-26T23:17:09.434Z,7.90
2019-01-26T23:19:49.208Z,7.90
2019-01-26T23:23:23.173Z,7.90
2019-01-26T23:26:23.123Z,7.90
2019-01-26T23:29:33.661Z,8.00
2019-01-26T23:32:08.709Z,8.00
2019-01-26T23:34:43.641Z,8.00
2019-01-26T23:37:18.589Z,8.00
2019-01-26T23:39:53.531Z,8.10
2019-01-26T23:42:28.485Z,8.10
2019-01-26T23:45:03.604Z,8.10
2019-01-26T23:47:39.631Z,8.10
2019-01-26T23:50:14.648Z,8.20
2019-01-26T23:52:49.472Z,8.10
2019-01-26T23:55:24.288Z,8.10
2019-01-26T23:57:59.223Z,8.20
